createdAt,value
2023-03-18T00:00:50.266Z,59.40
2023-03-18T00:03:17.685Z,59.60
2023-03-18T00:05:44.920Z,59.40
2023-03-18T00:08:12.179Z,59.70
2023-03-18T00:10:39.705Z,60.00
2023-03-18T00:13:06.703Z,60.30
2023-03-18T00:15:33.762Z,60.00
2023-03-18T00:18:00.867Z,60.20
2023-03-18T00:20:39.004Z,60.70
2023-03-18T00:23:07.407Z,60.50
2023-03-18T00:25:34.904Z,61.10
2023-03-18T00:28:02.791Z,61.10
2023-03-18T00:30:29.727Z,61.10
2023-03-18T00:32:58.035Z,61.00
2023-03-18T00:35:28.179Z,61.10
2023-03-18T00:37:55.533Z,61.40
2023-03-18T00:40:28.520Z,61.30
2023-03-18T00:43:01.800Z,61.50
2023-03-18T00:45:30.013Z,62.10
2023-03-18T00:47:56.886Z,62.10
2023-03-18T00:50:23.844Z,61.90
2023-03-18T00:52:50.789Z,62.30
2023-03-18T00:55:17.882Z,61.70
2023-03-18T00:57:44.835Z,61.80
2023-03-18T01:00:12.425Z,61.70
2023-03-18T01:02:39.268Z,62.40
2023-03-18T01:05:06.234Z,62.20
2023-03-18T01:07:33.109Z,62.00
2023-03-18T01:10:00.156Z,61.50
2023-03-18T01:12:27.062Z,61.80
2023-03-18T01:14:53.929Z,62.00
2023-03-18T01:17:20.867Z,62.20
2023-03-18T01:19:48.776Z,62.10
2023-03-18T01:22:15.887Z,62.30
2023-03-18T01:24:42.802Z,62.60
2023-03-18T01:27:09.706Z,62.30
2023-03-18T01:29:36.746Z,62.10
2023-03-18T01:32:04.300Z,62.20
2023-03-18T01:34:31.236Z,62.40
2023-03-18T01:36:58.771Z,62.50
2023-03-18T01:39:25.928Z,62.60
2023-03-18T01:41:52.980Z,62.70
2023-03-18T01:44:22.392Z,62.90
2023-03-18T01:46:51.225Z,62.80
2023-03-18T01:49:25.746Z,62.80
2023-03-18T01:52:00.786Z,63.60
2023-03-18T01:54:30.566Z,63.50
2023-03-18T01:56:57.778Z,63.50
2023-03-18T01:59:28.903Z,63.60
2023-03-18T02:02:14.638Z,63.70
2023-03-18T02:04:45.176Z,64.00
2023-03-18T02:07:18.062Z,64.40
2023-03-18T02:09:46.653Z,64.60
2023-03-18T02:12:16.009Z,64.10
2023-03-18T02:14:43.043Z,64.10
2023-03-18T02:17:15.326Z,64.20
2023-03-18T02:20:03.366Z,64.10
2023-03-18T02:22:39.313Z,64.40
2023-03-18T02:25:31.901Z,64.30
2023-03-18T02:28:03.409Z,64.20
2023-03-18T02:30:43.881Z,64.80
2023-03-18T02:33:11.895Z,64.40
2023-03-18T02:35:40.205Z,64.60
2023-03-18T02:38:07.169Z,64.30
2023-03-18T02:40:36.938Z,64.20
2023-03-18T02:43:22.136Z,64.30
2023-03-18T02:45:58.012Z,64.20
2023-03-18T02:48:30.737Z,64.40
2023-03-18T02:50:57.658Z,64.80
2023-03-18T02:53:24.547Z,64.60
2023-03-18T02:55:51.455Z,65.00
2023-03-18T02:58:18.608Z,64.80
2023-03-18T03:00:45.575Z,64.90
2023-03-18T03:03:12.602Z,64.70
2023-03-18T03:05:39.706Z,64.90
2023-03-18T03:08:07.284Z,64.70
2023-03-18T03:10:34.375Z,64.70
2023-03-18T03:13:02.213Z,65.10
2023-03-18T03:15:29.413Z,64.80
2023-03-18T03:17:56.345Z,64.90
2023-03-18T03:20:23.736Z,65.20
2023-03-18T03:22:51.213Z,65.30
2023-03-18T03:25:18.412Z,65.00
2023-03-18T03:27:45.278Z,64.90
2023-03-18T03:30:13.285Z,64.80
2023-03-18T03:32:41.192Z,65.40
2023-03-18T03:35:08.681Z,65.30
2023-03-18T03:37:35.992Z,64.70
2023-03-18T03:40:03.143Z,65.20
2023-03-18T03:42:29.944Z,65.20
2023-03-18T03:44:58.361Z,65.10
2023-03-18T03:47:25.913Z,65.10
2023-03-18T03:49:53.265Z,65.00
2023-03-18T03:52:20.263Z,64.80
2023-03-18T03:54:47.358Z,64.80
2023-03-18T03:57:14.180Z,65.10
2023-03-18T03:59:41.054Z,65.00
2023-03-18T04:02:09.037Z,64.70
2023-03-18T04:04:36.398Z,64.70
2023-03-18T04:07:03.438Z,64.60
2023-03-18T04:09:30.528Z,65.00
2023-03-18T04:11:57.519Z,65.40
2023-03-18T04:14:24.359Z,64.90
2023-03-18T04:16:51.280Z,65.50
2023-03-18T04:19:18.955Z,64.60
2023-03-18T04:21:46.190Z,64.50
2023-03-18T04:24:13.098Z,64.20
2023-03-18T04:26:39.962Z,64.60
2023-03-18T04:29:06.900Z,64.10
2023-03-18T04:31:34.330Z,64.70
2023-03-18T04:34:01.421Z,64.40
2023-03-18T04:36:28.433Z,64.10
2023-03-18T04:38:57.002Z,64.20
2023-03-18T04:41:24.184Z,63.60
2023-03-18T04:43:51.084Z,64.10
2023-03-18T04:46:18.387Z,63.70
2023-03-18T04:48:45.325Z,63.40
2023-03-18T04:51:12.585Z,63.60
2023-03-18T04:53:40.010Z,63.50
2023-03-18T04:56:07.268Z,63.60
2023-03-18T04:58:34.169Z,63.00
2023-03-18T05:01:02.183Z,62.90
2023-03-18T05:03:29.130Z,62.70
2023-03-18T05:05:56.216Z,62.50
2023-03-18T05:08:23.685Z,62.70
2023-03-18T05:10:51.079Z,62.40
2023-03-18T05:13:18.675Z,61.80
2023-03-18T05:15:45.684Z,62.10
2023-03-18T05:18:12.798Z,62.00
2023-03-18T05:20:39.811Z,61.70
2023-03-18T05:23:06.718Z,61.90
2023-03-18T05:25:34.143Z,61.50
2023-03-18T05:28:01.712Z,61.00
2023-03-18T05:30:28.604Z,61.50
2023-03-18T05:32:55.665Z,61.20
2023-03-18T05:35:22.653Z,60.90
2023-03-18T05:37:50.066Z,61.10
2023-03-18T05:40:17.109Z,60.60
2023-03-18T05:42:55.391Z,61.00
2023-03-18T05:45:23.361Z,60.30
2023-03-18T05:47:50.331Z,60.20
2023-03-18T05:50:33.948Z,59.70
2023-03-18T05:53:01.571Z,59.50
2023-03-18T05:55:29.788Z,59.10
2023-03-18T05:57:57.685Z,58.90
2023-03-18T06:00:25.026Z,58.80
2023-03-18T06:02:54.677Z,58.20
2023-03-18T06:05:22.649Z,57.60
2023-03-18T06:07:49.669Z,57.20
2023-03-18T06:10:17.256Z,57.00
2023-03-18T06:12:44.759Z,56.50
2023-03-18T06:15:12.446Z,56.00
2023-03-18T06:17:39.652Z,55.90
2023-03-18T06:20:09.188Z,55.20
2023-03-18T06:22:37.084Z,55.50
2023-03-18T06:25:04.853Z,54.50
2023-03-18T06:27:31.599Z,54.00
2023-03-18T06:30:02.761Z,53.40
2023-03-18T06:32:30.194Z,53.40
2023-03-18T06:34:57.266Z,52.60
2023-03-18T06:37:24.101Z,52.20
2023-03-18T06:39:50.993Z,51.60
2023-03-18T06:42:17.792Z,51.40
2023-03-18T06:44:50.685Z,51.60
2023-03-18T06:47:18.670Z,51.70
2023-03-18T06:49:45.908Z,51.50
2023-03-18T06:52:14.293Z,51.10
2023-03-18T06:54:41.403Z,51.30
2023-03-18T06:57:08.580Z,49.30
2023-03-18T06:59:35.742Z,48.20
2023-03-18T07:02:03.100Z,47.40
2023-03-18T07:04:31.009Z,47.70
2023-03-18T07:06:57.971Z,48.00
2023-03-18T07:09:24.743Z,48.10
2023-03-18T07:11:51.478Z,47.80
2023-03-18T07:14:18.836Z,47.30
2023-03-18T07:16:46.099Z,47.50
2023-03-18T07:19:12.934Z,46.80
2023-03-18T07:21:41.365Z,46.30
2023-03-18T07:24:08.705Z,45.60
2023-03-18T07:26:35.602Z,46.20
2023-03-18T07:29:03.369Z,45.90
2023-03-18T07:31:30.989Z,46.10
2023-03-18T07:33:58.106Z,45.20
2023-03-18T07:36:28.088Z,45.90
2023-03-18T07:38:54.878Z,44.50
2023-03-18T07:41:21.943Z,43.20
2023-03-18T07:43:48.724Z,43.60
2023-03-18T07:46:15.476Z,44.00
2023-03-18T07:48:42.359Z,44.80
2023-03-18T07:51:09.101Z,44.70
2023-03-18T07:53:36.157Z,44.00
2023-03-18T07:56:04.006Z,45.00
2023-03-18T07:58:30.794Z,44.50
2023-03-18T08:00:57.783Z,44.70
2023-03-18T08:03:24.594Z,44.80
2023-03-18T08:05:51.617Z,45.20
2023-03-18T08:08:18.558Z,45.20
2023-03-18T08:10:45.390Z,45.40
2023-03-18T08:13:13.053Z,45.70
2023-03-18T08:15:40.557Z,45.30
2023-03-18T08:18:09.398Z,45.60
2023-03-18T08:20:36.346Z,44.10
2023-03-18T08:23:03.630Z,45.60
2023-03-18T08:25:31.154Z,45.40
2023-03-18T08:27:58.404Z,45.20
2023-03-18T08:30:28.641Z,45.80
2023-03-18T08:32:55.973Z,46.60
2023-03-18T08:35:23.544Z,47.20
2023-03-18T08:37:51.623Z,48.10
2023-03-18T08:40:19.597Z,47.30
2023-03-18T08:42:46.965Z,48.20
2023-03-18T08:45:13.756Z,48.90
2023-03-18T08:47:41.561Z,48.50
2023-03-18T08:50:09.079Z,48.00
2023-03-18T08:52:38.101Z,48.60
2023-03-18T08:55:05.822Z,48.40
2023-03-18T08:57:32.791Z,47.30
2023-03-18T08:59:59.512Z,46.90
2023-03-18T09:02:26.368Z,45.50
2023-03-18T09:04:53.964Z,45.40
2023-03-18T09:07:20.909Z,45.30
2023-03-18T09:09:47.719Z,45.30
2023-03-18T09:12:14.915Z,45.90
2023-03-18T09:14:42.752Z,45.30
2023-03-18T09:17:09.679Z,45.30
2023-03-18T09:19:37.509Z,44.30
2023-03-18T09:22:04.538Z,44.00
2023-03-18T09:24:31.744Z,44.10
2023-03-18T09:27:00.017Z,44.30
2023-03-18T09:29:27.716Z,42.80
2023-03-18T09:31:55.592Z,42.80
2023-03-18T09:34:22.807Z,42.30
2023-03-18T09:36:51.674Z,42.00
2023-03-18T09:39:22.534Z,41.00
2023-03-18T09:41:58.056Z,40.80
2023-03-18T09:44:33.674Z,41.00
2023-03-18T09:47:20.864Z,41.00
2023-03-18T09:50:06.043Z,41.20
2023-03-18T09:52:39.121Z,41.30
2023-03-18T09:55:27.432Z,40.60
2023-03-18T09:57:56.132Z,42.30
2023-03-18T10:00:29.151Z,43.50
2023-03-18T10:03:05.833Z,45.40
2023-03-18T10:05:35.047Z,45.30
2023-03-18T10:08:09.157Z,45.80
2023-03-18T10:10:40.787Z,45.90
2023-03-18T10:13:07.724Z,46.10
2023-03-18T10:15:34.912Z,45.60
2023-03-18T10:18:13.175Z,45.10
2023-03-18T10:20:48.988Z,44.50
2023-03-18T10:23:24.406Z,42.80
2023-03-18T10:25:55.976Z,42.60
2023-03-18T10:28:41.774Z,43.70
2023-03-18T10:31:26.723Z,42.70
2023-03-18T10:33:55.608Z,44.10
2023-03-18T10:36:28.389Z,44.00
2023-03-18T10:38:56.409Z,43.20
2023-03-18T10:41:34.547Z,44.60
2023-03-18T10:44:17.513Z,44.90
2023-03-18T10:46:46.719Z,43.50
2023-03-18T10:49:19.231Z,43.60
2023-03-18T10:51:49.049Z,43.30
2023-03-18T10:54:20.582Z,43.80
2023-03-18T10:56:49.470Z,43.10
2023-03-18T10:59:20.906Z,43.30
2023-03-18T11:01:49.823Z,44.10
2023-03-18T11:04:19.118Z,43.90
2023-03-18T11:06:48.049Z,44.40
2023-03-18T11:09:19.953Z,45.20
2023-03-18T11:11:48.704Z,45.30
2023-03-18T11:14:17.950Z,45.10
2023-03-18T11:16:58.098Z,45.80
2023-03-18T11:19:29.556Z,46.10
2023-03-18T11:22:02.481Z,46.00
2023-03-18T11:24:45.041Z,46.00
2023-03-18T11:27:32.443Z,45.80
2023-03-18T11:30:00.515Z,46.40
2023-03-18T11:32:28.118Z,46.50
2023-03-18T11:34:57.312Z,45.90
2023-03-18T11:37:31.913Z,46.80
2023-03-18T11:40:13.964Z,46.50
2023-03-18T11:42:42.030Z,46.80
2023-03-18T11:45:23.741Z,46.60
2023-03-18T11:47:50.458Z,46.90
2023-03-18T11:50:21.214Z,47.00
2023-03-18T11:53:08.135Z,47.40
2023-03-18T11:55:35.079Z,46.90
2023-03-18T11:58:21.764Z,46.60
2023-03-18T12:00:53.237Z,46.90
2023-03-18T12:03:35.559Z,47.10
2023-03-18T12:06:08.234Z,46.60
2023-03-18T12:08:35.116Z,45.50
2023-03-18T12:11:20.238Z,44.90
2023-03-18T12:13:52.522Z,45.40
2023-03-18T12:16:19.397Z,44.70
2023-03-18T12:18:52.365Z,45.30
2023-03-18T12:21:37.902Z,46.60
2023-03-18T12:24:24.330Z,47.20
2023-03-18T12:26:51.125Z,46.70
2023-03-18T12:29:17.933Z,46.80
2023-03-18T12:31:51.076Z,47.10
2023-03-18T12:34:34.264Z,46.50
2023-03-18T12:37:06.204Z,45.90
2023-03-18T12:39:39.001Z,46.00
2023-03-18T12:42:13.543Z,45.80
2023-03-18T12:44:59.002Z,45.40
2023-03-18T12:47:32.064Z,45.80
2023-03-18T12:50:15.335Z,45.00
2023-03-18T12:52:46.550Z,44.90
2023-03-18T12:55:39.856Z,45.80
2023-03-18T12:58:16.012Z,46.90
2023-03-18T13:00:48.000Z,46.60
2023-03-18T13:03:24.796Z,46.00
2023-03-18T13:05:54.572Z,45.60
2023-03-18T13:08:24.418Z,46.40
2023-03-18T13:10:56.941Z,46.10
2023-03-18T13:13:24.482Z,45.30
2023-03-18T13:15:52.605Z,45.70
2023-03-18T13:18:21.638Z,46.10
2023-03-18T13:20:49.800Z,46.50
2023-03-18T13:23:22.952Z,46.80
2023-03-18T13:25:53.634Z,48.00
2023-03-18T13:28:23.341Z,47.90
2023-03-18T13:30:54.103Z,48.70
2023-03-18T13:33:34.260Z,48.60
2023-03-18T13:36:04.386Z,48.60
2023-03-18T13:38:44.026Z,48.10
2023-03-18T13:41:32.505Z,47.80
2023-03-18T13:44:05.452Z,48.30
2023-03-18T13:46:33.138Z,48.20
2023-03-18T13:49:01.626Z,48.00
2023-03-18T13:51:28.754Z,47.40
2023-03-18T13:54:05.739Z,47.20
2023-03-18T13:56:32.429Z,48.00
2023-03-18T13:59:04.756Z,47.70
2023-03-18T14:01:34.008Z,48.20
2023-03-18T14:04:19.324Z,47.80
2023-03-18T14:06:51.464Z,48.10
2023-03-18T14:09:30.830Z,48.20
2023-03-18T14:12:17.950Z,48.60
2023-03-18T14:14:51.456Z,48.70
2023-03-18T14:17:38.560Z,48.50
2023-03-18T14:20:07.514Z,48.90
2023-03-18T14:22:36.537Z,49.00
2023-03-18T14:25:19.796Z,48.90
2023-03-18T14:27:49.379Z,48.70
2023-03-18T14:30:34.921Z,48.80
2023-03-18T14:33:07.074Z,49.30
2023-03-18T14:35:35.420Z,49.40
2023-03-18T14:38:08.859Z,49.80
2023-03-18T14:40:38.428Z,50.30
2023-03-18T14:43:16.774Z,49.40
2023-03-18T14:45:45.078Z,49.70
2023-03-18T14:48:24.612Z,50.10
2023-03-18T14:50:52.619Z,50.20
2023-03-18T14:53:22.894Z,50.30
2023-03-18T14:55:51.580Z,50.40
2023-03-18T14:58:21.729Z,50.70
2023-03-18T15:01:11.617Z,50.80
2023-03-18T15:03:39.317Z,50.90
2023-03-18T15:06:07.504Z,51.10
2023-03-18T15:08:47.221Z,51.20
2023-03-18T15:11:16.536Z,51.50
2023-03-18T15:13:44.700Z,51.70
2023-03-18T15:16:13.590Z,51.70
2023-03-18T15:18:40.467Z,52.10
2023-03-18T15:21:15.600Z,51.90
2023-03-18T15:23:50.722Z,51.90
2023-03-18T15:26:23.696Z,52.50
2023-03-18T15:28:55.147Z,52.30
2023-03-18T15:31:32.046Z,52.50
2023-03-18T15:34:04.913Z,52.90
2023-03-18T15:36:40.203Z,53.10
2023-03-18T15:39:21.574Z,53.40
2023-03-18T15:41:58.696Z,53.30
2023-03-18T15:44:28.675Z,53.60
2023-03-18T15:46:56.453Z,54.00
2023-03-18T15:49:27.595Z,54.50
2023-03-18T15:52:01.643Z,55.00
2023-03-18T15:54:48.680Z,55.20
2023-03-18T15:57:23.675Z,55.40
2023-03-18T15:59:50.397Z,55.90
2023-03-18T16:02:18.705Z,56.30
2023-03-18T16:04:46.768Z,56.80
2023-03-18T16:07:18.786Z,56.80
2023-03-18T16:09:45.877Z,57.10
2023-03-18T16:12:22.856Z,57.20
2023-03-18T16:14:50.555Z,57.50
2023-03-18T16:17:21.487Z,57.70
2023-03-18T16:19:53.820Z,58.10
2023-03-18T16:22:20.640Z,58.40
2023-03-18T16:24:47.974Z,58.40
2023-03-18T16:27:27.794Z,58.40
2023-03-18T16:29:55.679Z,58.80
2023-03-18T16:32:23.099Z,58.60
2023-03-18T16:34:50.011Z,58.80
2023-03-18T16:37:19.112Z,59.10
2023-03-18T16:39:46.326Z,58.80
2023-03-18T16:42:13.643Z,59.20
2023-03-18T16:44:40.568Z,59.20
2023-03-18T16:47:14.536Z,59.60
2023-03-18T16:49:41.914Z,59.60
2023-03-18T16:52:11.647Z,59.70
2023-03-18T16:54:39.428Z,59.60
2023-03-18T16:57:07.022Z,60.10
2023-03-18T16:59:35.566Z,60.10
2023-03-18T17:02:04.272Z,60.20
2023-03-18T17:04:32.712Z,60.40
2023-03-18T17:07:00.769Z,60.10
2023-03-18T17:09:27.798Z,60.50
2023-03-18T17:11:57.744Z,60.70
2023-03-18T17:14:29.047Z,60.70
2023-03-18T17:16:56.981Z,60.70
2023-03-18T17:19:25.604Z,61.10
2023-03-18T17:21:53.987Z,61.50
2023-03-18T17:24:21.419Z,61.40
2023-03-18T17:26:48.770Z,61.30
2023-03-18T17:29:23.795Z,61.60
2023-03-18T17:31:51.826Z,61.90
2023-03-18T17:34:18.652Z,62.10
2023-03-18T17:36:45.773Z,62.40
2023-03-18T17:39:13.134Z,62.20
2023-03-18T17:41:40.319Z,62.50
2023-03-18T17:44:30.269Z,62.30
2023-03-18T17:46:57.220Z,62.50
2023-03-18T17:49:24.754Z,62.40
2023-03-18T17:51:52.263Z,62.60
2023-03-18T17:54:20.695Z,62.90
2023-03-18T17:56:47.961Z,63.00
2023-03-18T17:59:19.548Z,62.90
2023-03-18T18:01:47.899Z,62.90
2023-03-18T18:04:15.971Z,62.90
2023-03-18T18:06:43.409Z,63.30
2023-03-18T18:09:12.931Z,63.20
2023-03-18T18:11:44.367Z,63.40
2023-03-18T18:14:23.573Z,63.50
2023-03-18T18:16:51.050Z,63.30
2023-03-18T18:19:19.007Z,63.30
2023-03-18T18:21:46.641Z,63.40
2023-03-18T18:24:13.959Z,63.60
2023-03-18T18:26:40.857Z,63.60
2023-03-18T18:29:11.152Z,63.80
2023-03-18T18:31:38.152Z,63.70
2023-03-18T18:34:04.993Z,63.80
2023-03-18T18:36:32.562Z,64.00
2023-03-18T18:39:00.197Z,63.70
2023-03-18T18:41:27.507Z,64.30
2023-03-18T18:43:55.614Z,64.20
2023-03-18T18:46:23.676Z,64.30
2023-03-18T18:48:51.732Z,64.50
2023-03-18T18:51:19.823Z,64.60
2023-03-18T18:53:47.614Z,64.50
2023-03-18T18:56:20.389Z,64.80
2023-03-18T18:58:47.662Z,64.70
2023-03-18T19:01:15.222Z,64.90
2023-03-18T19:03:42.228Z,65.20
2023-03-18T19:06:18.484Z,65.10
2023-03-18T19:08:45.869Z,65.10
2023-03-18T19:11:12.651Z,65.20
2023-03-18T19:13:39.630Z,65.30
2023-03-18T19:16:25.420Z,65.30
2023-03-18T19:18:52.302Z,65.70
2023-03-18T19:21:19.158Z,65.40
2023-03-18T19:23:46.001Z,65.90
2023-03-18T19:26:14.076Z,66.00
2023-03-18T19:28:47.645Z,66.20
2023-03-18T19:31:19.234Z,66.30
2023-03-18T19:33:52.241Z,66.30
2023-03-18T19:36:18.961Z,66.70
2023-03-18T19:38:46.079Z,66.60
2023-03-18T19:41:12.877Z,66.90
2023-03-18T19:43:41.611Z,66.90
2023-03-18T19:46:14.703Z,67.00
2023-03-18T19:48:41.498Z,67.10
2023-03-18T19:51:08.792Z,67.20
2023-03-18T19:53:35.964Z,67.40
2023-03-18T19:56:05.905Z,67.40
2023-03-18T19:58:32.803Z,67.60
2023-03-18T20:01:01.834Z,67.80
2023-03-18T20:03:28.957Z,68.00
2023-03-18T20:05:55.888Z,68.30
2023-03-18T20:08:22.667Z,68.20
2023-03-18T20:10:49.491Z,68.30
2023-03-18T20:13:17.009Z,68.50
2023-03-18T20:15:43.796Z,68.50
2023-03-18T20:18:17.342Z,68.60
2023-03-18T20:20:48.503Z,68.60
2023-03-18T20:23:23.847Z,68.80
2023-03-18T20:25:54.095Z,68.90
2023-03-18T20:28:23.122Z,69.10
2023-03-18T20:30:53.358Z,69.10
2023-03-18T20:33:20.564Z,69.30
2023-03-18T20:35:48.108Z,69.70
2023-03-18T20:38:14.823Z,69.70
2023-03-18T20:40:43.625Z,69.60
2023-03-18T20:43:14.087Z,70.00
2023-03-18T20:45:41.434Z,70.10
2023-03-18T20:48:08.959Z,70.10
2023-03-18T20:50:36.300Z,70.10
2023-03-18T20:53:04.474Z,70.30
2023-03-18T20:55:33.265Z,70.50
2023-03-18T20:58:01.041Z,70.50
2023-03-18T21:00:29.237Z,70.50
2023-03-18T21:02:57.610Z,70.80
2023-03-18T21:05:26.250Z,70.80
2023-03-18T21:07:53.440Z,71.00
2023-03-18T21:10:24.613Z,71.00
2023-03-18T21:12:51.713Z,71.00
2023-03-18T21:15:20.639Z,71.10
2023-03-18T21:17:47.693Z,71.10
2023-03-18T21:20:24.524Z,71.30
2023-03-18T21:22:51.551Z,71.30
2023-03-18T21:25:20.274Z,71.40
2023-03-18T21:27:47.556Z,71.40
2023-03-18T21:30:15.371Z,71.60
2023-03-18T21:32:42.705Z,71.80
2023-03-18T21:35:23.452Z,71.80
2023-03-18T21:37:50.793Z,71.80
2023-03-18T21:40:19.309Z,72.20
2023-03-18T21:42:46.672Z,72.30
2023-03-18T21:45:14.872Z,72.30
2023-03-18T21:47:42.835Z,72.30
2023-03-18T21:50:19.562Z,72.60
2023-03-18T21:52:46.805Z,72.60
2023-03-18T21:55:13.826Z,72.70
2023-03-18T21:57:40.704Z,72.80
2023-03-18T22:00:07.989Z,72.80
2023-03-18T22:02:36.058Z,72.90
2023-03-18T22:05:04.748Z,73.00
2023-03-18T22:07:31.763Z,73.20
2023-03-18T22:09:58.937Z,73.40
2023-03-18T22:12:27.357Z,73.30
2023-03-18T22:14:54.578Z,73.40
2023-03-18T22:17:21.540Z,73.40
2023-03-18T22:19:48.918Z,73.60
2023-03-18T22:22:16.791Z,73.50
2023-03-18T22:24:43.941Z,73.80
2023-03-18T22:27:18.684Z,73.70
2023-03-18T22:29:45.710Z,73.80
2023-03-18T22:32:30.976Z,73.80
2023-03-18T22:34:57.828Z,74.00
2023-03-18T22:37:25.162Z,74.10
2023-03-18T22:39:52.228Z,74.00
2023-03-18T22:42:20.380Z,74.20
2023-03-18T22:44:47.185Z,74.30
2023-03-18T22:47:16.729Z,74.20
2023-03-18T22:49:43.619Z,74.60
2023-03-18T22:52:16.058Z,74.60
2023-03-18T22:54:42.929Z,74.40
2023-03-18T22:57:14.236Z,74.50
2023-03-18T22:59:41.026Z,74.60
2023-03-18T23:02:12.888Z,74.80
2023-03-18T23:04:39.578Z,74.90
2023-03-18T23:07:07.097Z,74.70
2023-03-18T23:09:37.390Z,74.80
2023-03-18T23:12:09.447Z,75.00
2023-03-18T23:14:37.407Z,75.00
2023-03-18T23:17:04.281Z,75.30
2023-03-18T23:19:31.521Z,75.10
2023-03-18T23:21:58.265Z,75.10
2023-03-18T23:24:25.027Z,75.20
2023-03-18T23:26:51.748Z,75.30
2023-03-18T23:29:18.444Z,75.30
2023-03-18T23:31:45.350Z,75.30
2023-03-18T23:34:12.166Z,75.40
2023-03-18T23:36:38.931Z,75.40
2023-03-18T23:39:05.840Z,75.40
2023-03-18T23:41:32.580Z,75.40
2023-03-18T23:43:59.311Z,75.60
2023-03-18T23:46:26.342Z,75.50
2023-03-18T23:48:53.136Z,75.60
2023-03-18T23:51:19.917Z,75.90
2023-03-18T23:53:46.657Z,75.80
2023-03-18T23:56:14.038Z,75.80
2023-03-18T23:58:41.251Z,76.00
